createdAt,value
2022-12-04T00:01:13.738Z,43.05
2022-12-04T00:03:41.350Z,43.45
2022-12-04T00:06:16.745Z,44.95
2022-12-04T00:08:45.203Z,47.20
2022-12-04T00:11:14.594Z,41.17
2022-12-04T00:13:42.579Z,43.33
2022-12-04T00:16:13.244Z,40.78
2022-12-04T00:18:40.844Z,47.95
2022-12-04T00:21:10.820Z,40.50
2022-12-04T00:23:39.048Z,47.72
2022-12-04T00:26:09.943Z,40.13
2022-12-04T00:28:37.489Z,50.00
2022-12-04T00:31:09.781Z,41.20
2022-12-04T00:33:37.441Z,39.33
2022-12-04T00:36:07.936Z,45.17
2022-12-04T00:38:35.781Z,44.95
2022-12-04T00:41:03.228Z,41.88
2022-12-04T00:43:31.760Z,45.40
2022-12-04T00:45:59.242Z,44.17
2022-12-04T00:48:27.081Z,49.75
2022-12-04T00:50:55.421Z,51.60
2022-12-04T00:53:22.736Z,44.17
2022-12-04T00:55:50.081Z,45.38
2022-12-04T00:58:17.479Z,45.53
2022-12-04T01:00:44.746Z,53.33
2022-12-04T01:03:12.251Z,44.13
2022-12-04T01:05:41.774Z,48.15
2022-12-04T01:08:10.537Z,45.70
2022-12-04T01:10:42.178Z,54.25
2022-12-04T01:13:09.598Z,51.42
2022-12-04T01:15:41.507Z,50.88
2022-12-04T01:18:09.223Z,49.72
2022-12-04T01:20:37.085Z,43.67
2022-12-04T01:23:04.611Z,44.45
2022-12-04T01:25:32.377Z,45.40
2022-12-04T01:28:00.772Z,47.25
2022-12-04T01:30:28.265Z,47.90
2022-12-04T01:32:55.499Z,52.53
2022-12-04T01:35:22.796Z,51.25
2022-12-04T01:37:50.004Z,48.58
2022-12-04T01:40:17.502Z,41.15
2022-12-04T01:42:44.764Z,51.90
2022-12-04T01:45:38.503Z,46.63
2022-12-04T01:48:15.700Z,57.53
2022-12-04T01:53:12.657Z,44.90
2022-12-04T01:55:40.584Z,52.03
2022-12-04T01:58:09.623Z,55.40
2022-12-04T02:00:36.892Z,58.15
2022-12-04T02:03:04.263Z,57.25
2022-12-04T02:05:31.520Z,55.72
2022-12-04T02:08:04.738Z,52.53
2022-12-04T02:10:55.526Z,48.35
2022-12-04T02:13:45.484Z,55.20
2022-12-04T02:16:36.813Z,47.63
2022-12-04T02:19:40.433Z,53.38
2022-12-04T02:22:24.072Z,50.65
2022-12-04T02:25:07.179Z,53.33
2022-12-04T02:27:40.262Z,51.65
2022-12-04T02:30:11.836Z,42.28
2022-12-04T02:32:45.243Z,43.83
2022-12-04T02:35:33.187Z,44.85
2022-12-04T02:38:11.050Z,46.35
2022-12-04T02:40:59.720Z,51.13
2022-12-04T02:43:39.499Z,42.40
2022-12-04T02:46:21.686Z,44.90
2022-12-04T02:48:53.447Z,51.33
2022-12-04T02:51:23.260Z,49.00
2022-12-04T02:53:56.056Z,49.47
2022-12-04T02:56:30.466Z,47.88
2022-12-04T02:59:06.984Z,49.28
2022-12-04T03:01:38.894Z,53.13
2022-12-04T03:04:06.426Z,57.88
2022-12-04T03:06:36.723Z,44.10
2022-12-04T03:09:11.093Z,54.75
2022-12-04T03:11:40.512Z,57.58
2022-12-04T03:14:19.078Z,52.58
2022-12-04T03:16:48.170Z,52.70
2022-12-04T03:19:28.044Z,57.17
2022-12-04T03:22:01.527Z,58.75
2022-12-04T03:24:38.658Z,68.70
2022-12-04T03:30:14.179Z,62.30
2022-12-04T03:32:44.213Z,64.50
2022-12-04T03:35:16.035Z,65.80
2022-12-04T03:38:12.606Z,79.13
2022-12-04T03:40:54.158Z,57.50
2022-12-04T03:43:39.998Z,59.78
2022-12-04T03:46:16.848Z,58.30
2022-12-04T03:48:47.582Z,60.42
2022-12-04T03:51:34.309Z,65.13
2022-12-04T03:54:12.001Z,61.40
2022-12-04T03:56:50.548Z,60.95
2022-12-04T03:59:30.283Z,62.45
2022-12-04T04:02:00.235Z,70.65
2022-12-04T04:04:39.641Z,65.00
2022-12-04T04:07:19.832Z,70.85
2022-12-04T04:09:49.620Z,64.50
2022-12-04T04:12:32.483Z,62.83
2022-12-04T04:15:28.389Z,66.60
2022-12-04T04:18:15.765Z,62.78
2022-12-04T04:21:06.848Z,58.67
2022-12-04T04:23:57.828Z,68.50
2022-12-04T04:26:27.720Z,70.50
2022-12-04T04:28:55.042Z,69.22
2022-12-04T04:31:39.020Z,66.18
2022-12-04T04:34:20.854Z,57.40
2022-12-04T04:37:01.416Z,58.78
2022-12-04T04:39:39.780Z,65.72
2022-12-04T04:42:13.721Z,60.58
2022-12-04T04:44:51.928Z,69.28
2022-12-04T04:47:30.354Z,71.65
2022-12-04T04:50:01.736Z,70.68
2022-12-04T04:52:30.136Z,70.22
2022-12-04T04:55:00.509Z,61.95
2022-12-04T04:57:33.928Z,68.35
2022-12-04T05:00:01.848Z,61.90
2022-12-04T05:02:29.256Z,65.93
2022-12-04T05:04:56.619Z,62.90
2022-12-04T05:07:23.858Z,82.88
2022-12-04T05:09:51.111Z,69.45
2022-12-04T05:12:18.296Z,69.65
2022-12-04T05:14:47.576Z,69.55
2022-12-04T05:17:15.155Z,74.10
2022-12-04T05:19:55.005Z,66.88
2022-12-04T05:22:34.584Z,62.55
2022-12-04T05:25:03.559Z,74.45
2022-12-04T05:27:31.847Z,61.88
2022-12-04T05:29:59.703Z,69.63
2022-12-04T05:32:28.899Z,69.28
2022-12-04T05:34:56.849Z,65.88
2022-12-04T05:37:24.933Z,73.65
2022-12-04T05:39:52.503Z,69.90
2022-12-04T05:42:20.104Z,81.40
2022-12-04T05:44:49.001Z,70.63
2022-12-04T05:47:16.565Z,73.45
2022-12-04T05:49:43.848Z,70.05
2022-12-04T05:52:11.149Z,71.32
2022-12-04T05:54:38.746Z,73.72
2022-12-04T05:57:06.425Z,80.53
2022-12-04T05:59:33.929Z,73.72
2022-12-04T06:02:01.188Z,72.13
2022-12-04T06:04:28.824Z,73.88
2022-12-04T06:06:56.025Z,72.55
2022-12-04T06:09:23.388Z,68.60
2022-12-04T06:11:50.613Z,72.20
2022-12-04T06:14:17.879Z,72.88
2022-12-04T06:16:46.465Z,71.53
2022-12-04T06:19:17.536Z,75.78
2022-12-04T06:21:47.135Z,70.18
2022-12-04T06:24:24.732Z,71.00
2022-12-04T06:27:26.171Z,81.10
2022-12-04T06:29:44.570Z,73.75
2022-12-04T06:32:15.230Z,68.30
2022-12-04T06:34:49.243Z,75.93
2022-12-04T06:37:16.492Z,71.50
2022-12-04T06:39:43.846Z,78.20
2022-12-04T06:42:11.035Z,73.35
2022-12-04T06:44:38.250Z,66.50
2022-12-04T06:47:05.827Z,69.65
2022-12-04T06:49:33.034Z,67.18
2022-12-04T06:52:00.493Z,68.43
2022-12-04T06:54:27.870Z,75.78
2022-12-04T06:56:55.284Z,82.03
2022-12-04T06:59:22.529Z,72.20
2022-12-04T07:01:49.841Z,66.00
2022-12-04T07:04:17.190Z,80.40
2022-12-04T07:06:44.417Z,70.00
2022-12-04T07:09:15.745Z,73.70
2022-12-04T07:11:43.956Z,71.03
2022-12-04T07:14:13.138Z,72.20
2022-12-04T07:16:42.676Z,75.88
2022-12-04T07:19:12.421Z,62.60
2022-12-04T07:21:40.585Z,67.45
2022-12-04T07:24:08.305Z,67.18
2022-12-04T07:26:35.524Z,53.75
2022-12-04T07:29:02.764Z,61.40
2022-12-04T07:31:30.426Z,71.03
2022-12-04T07:33:58.524Z,60.55
2022-12-04T07:36:26.556Z,61.97
2022-12-04T07:38:56.409Z,64.80
2022-12-04T07:41:23.926Z,66.00
2022-12-04T07:43:51.304Z,62.70
2022-12-04T07:46:22.158Z,61.08
2022-12-04T07:48:49.498Z,61.45
2022-12-04T07:51:18.377Z,80.22
2022-12-04T07:53:46.270Z,62.80
2022-12-04T07:56:14.659Z,62.78
2022-12-04T07:58:42.585Z,58.72
2022-12-04T08:01:13.378Z,66.28
2022-12-04T08:03:47.478Z,62.15
2022-12-04T08:06:17.148Z,61.28
2022-12-04T08:08:44.423Z,69.78
2022-12-04T08:11:14.265Z,67.13
2022-12-04T08:13:41.856Z,61.90
2022-12-04T08:16:10.828Z,67.80
2022-12-04T08:18:38.563Z,65.95
2022-12-04T08:21:11.161Z,60.63
2022-12-04T08:23:40.203Z,66.68
2022-12-04T08:26:08.036Z,53.03
2022-12-04T08:28:35.411Z,50.95
2022-12-04T08:31:14.533Z,56.17
2022-12-04T08:33:45.472Z,59.90
2022-12-04T08:36:17.940Z,51.60
2022-12-04T08:38:45.686Z,55.35
2022-12-04T08:41:15.533Z,67.15
2022-12-04T08:43:43.021Z,46.20
2022-12-04T08:46:13.352Z,48.78
2022-12-04T08:48:40.845Z,42.95
2022-12-04T08:51:13.003Z,44.63
2022-12-04T08:53:40.443Z,54.58
2022-12-04T08:56:07.920Z,48.38
2022-12-04T08:58:35.216Z,48.22
2022-12-04T09:01:14.808Z,55.95
2022-12-04T09:03:42.993Z,51.85
2022-12-04T09:06:12.304Z,38.72
2022-12-04T09:08:39.789Z,44.38
2022-12-04T09:11:09.742Z,42.33
2022-12-04T09:13:37.461Z,44.28
2022-12-04T09:16:07.081Z,44.08
2022-12-04T09:18:36.267Z,44.58
2022-12-04T09:21:10.237Z,40.00
2022-12-04T09:23:38.465Z,43.88
2022-12-04T09:26:15.841Z,40.75
2022-12-04T09:28:43.061Z,44.03
2022-12-04T09:31:10.319Z,42.67
2022-12-04T09:33:37.631Z,51.30
2022-12-04T09:36:05.277Z,46.00
2022-12-04T09:38:32.569Z,42.67
2022-12-04T09:41:27.634Z,41.90
2022-12-04T09:44:03.301Z,49.95
2022-12-04T09:46:41.040Z,39.13
2022-12-04T09:49:17.238Z,41.28
2022-12-04T09:51:45.173Z,49.35
2022-12-04T09:54:23.796Z,42.92
2022-12-04T09:57:36.961Z,46.15
2022-12-04T10:00:06.406Z,42.65
2022-12-04T10:02:40.607Z,55.47
2022-12-04T10:05:21.517Z,48.53
2022-12-04T10:08:05.997Z,46.55
2022-12-04T10:10:42.387Z,48.95
2022-12-04T10:13:38.900Z,46.08
2022-12-04T10:16:38.577Z,49.55
2022-12-04T10:19:36.606Z,55.60
2022-12-04T10:22:10.108Z,48.50
2022-12-04T10:24:52.847Z,52.63
2022-12-04T10:27:41.909Z,52.05
2022-12-04T10:30:27.326Z,51.78
2022-12-04T10:33:01.917Z,51.20
2022-12-04T10:35:31.463Z,46.60
2022-12-04T10:38:11.204Z,48.85
2022-12-04T10:40:53.964Z,51.00
2022-12-04T10:43:39.728Z,52.92
2022-12-04T10:46:12.659Z,47.60
2022-12-04T10:48:41.502Z,52.58
2022-12-04T10:51:17.641Z,51.20
2022-12-04T10:53:46.396Z,62.47
2022-12-04T10:56:19.485Z,46.60
2022-12-04T10:59:02.709Z,42.38
2022-12-04T11:01:32.222Z,44.50
2022-12-04T11:04:19.781Z,45.88
2022-12-04T11:06:49.916Z,41.33
2022-12-04T11:09:23.522Z,51.90
2022-12-04T11:11:51.772Z,48.75
2022-12-04T11:14:22.336Z,39.75
2022-12-04T11:17:00.165Z,39.80
2022-12-04T11:19:30.544Z,34.38
2022-12-04T11:22:04.637Z,46.78
2022-12-04T11:24:40.058Z,41.28
2022-12-04T11:27:16.394Z,39.42
2022-12-04T11:29:45.713Z,26.15
2022-12-04T11:32:44.345Z,36.47
2022-12-04T11:35:26.656Z,37.15
2022-12-04T11:38:01.061Z,38.60
2022-12-04T11:40:29.585Z,40.00
2022-12-04T11:43:14.143Z,43.10
2022-12-04T11:45:42.377Z,34.67
2022-12-04T11:48:15.605Z,40.50
2022-12-04T11:51:04.732Z,33.60
2022-12-04T11:53:44.658Z,32.47
2022-12-04T11:56:29.452Z,33.80
2022-12-04T11:59:02.428Z,37.55
2022-12-04T12:01:38.923Z,34.67
2022-12-04T12:04:37.453Z,36.78
2022-12-04T12:07:30.366Z,36.75
2022-12-04T12:10:09.800Z,35.38
2022-12-04T12:13:10.800Z,31.48
2022-12-04T12:16:08.274Z,37.88
2022-12-04T12:19:08.467Z,37.10
2022-12-04T12:22:06.780Z,29.25
2022-12-04T12:24:55.183Z,40.65
2022-12-04T12:27:50.404Z,38.40
2022-12-04T12:30:21.475Z,35.88
2022-12-04T12:33:03.359Z,34.85
2022-12-04T12:35:40.061Z,37.78
2022-12-04T12:38:22.641Z,44.28
2022-12-04T12:40:58.592Z,41.33
2022-12-04T12:43:41.046Z,41.42
2022-12-04T12:46:13.029Z,40.72
2022-12-04T12:49:16.459Z,45.85
2022-12-04T12:51:51.360Z,46.65
2022-12-04T12:54:36.588Z,44.85
2022-12-04T12:57:22.704Z,43.83
2022-12-04T12:59:55.476Z,61.65
2022-12-04T13:02:47.277Z,49.03
2022-12-04T13:05:20.475Z,53.75
2022-12-04T13:07:53.356Z,57.65
2022-12-04T13:10:29.251Z,41.28
2022-12-04T13:13:04.676Z,49.05
2022-12-04T13:15:44.649Z,46.03
2022-12-04T13:18:25.107Z,45.05
2022-12-04T13:20:57.016Z,44.45
2022-12-04T13:23:44.314Z,46.95
2022-12-04T13:26:49.725Z,44.80
2022-12-04T13:29:20.217Z,44.88
2022-12-04T13:32:28.965Z,49.63
2022-12-04T13:37:54.091Z,42.25
2022-12-04T13:40:31.186Z,45.95
2022-12-04T13:45:44.555Z,48.38
2022-12-04T13:48:12.592Z,45.53
2022-12-04T13:50:40.652Z,42.13
2022-12-04T13:53:32.239Z,48.08
2022-12-04T13:56:04.458Z,41.17
2022-12-04T13:58:36.361Z,41.10
2022-12-04T14:01:22.256Z,35.05
2022-12-04T14:03:59.381Z,37.05
2022-12-04T14:06:36.758Z,37.63
2022-12-04T14:09:08.421Z,35.40
2022-12-04T14:11:48.095Z,36.38
2022-12-04T14:14:33.273Z,37.83
2022-12-04T14:17:01.037Z,34.63
2022-12-04T14:19:30.800Z,30.15
2022-12-04T14:21:58.771Z,34.95
2022-12-04T14:24:37.983Z,31.65
2022-12-04T14:27:42.223Z,35.72
2022-12-04T14:30:25.239Z,41.03
2022-12-04T14:33:05.610Z,35.08
2022-12-04T14:35:33.637Z,40.22
2022-12-04T14:38:03.805Z,48.70
2022-12-04T14:40:38.980Z,41.85
2022-12-04T14:43:13.365Z,42.47
2022-12-04T14:46:06.859Z,45.42
2022-12-04T14:48:44.820Z,49.42
2022-12-04T14:51:18.817Z,46.78
2022-12-04T14:53:54.048Z,45.85
2022-12-04T14:56:30.793Z,43.40
2022-12-04T14:58:59.096Z,41.28
2022-12-04T15:01:32.748Z,37.50
2022-12-04T15:04:13.642Z,41.33
2022-12-04T15:06:40.989Z,37.88
2022-12-04T15:09:35.305Z,41.78
2022-12-04T15:12:35.173Z,43.22
2022-12-04T15:15:28.320Z,41.35
2022-12-04T15:18:14.961Z,34.05
2022-12-04T15:20:56.745Z,44.85
2022-12-04T15:23:41.393Z,43.13
2022-12-04T15:26:16.742Z,40.55
2022-12-04T15:29:00.338Z,35.58
2022-12-04T15:31:33.021Z,33.90
2022-12-04T15:34:08.916Z,34.50
2022-12-04T15:36:48.157Z,34.30
2022-12-04T15:39:21.537Z,30.58
2022-12-04T15:41:49.428Z,29.08
2022-12-04T15:45:01.507Z,30.67
2022-12-04T15:47:32.825Z,33.85
2022-12-04T15:50:21.915Z,27.90
2022-12-04T15:52:50.286Z,33.90
2022-12-04T15:55:19.179Z,34.60
2022-12-04T15:57:53.893Z,35.22
2022-12-04T16:00:40.725Z,29.27
2022-12-04T16:03:32.217Z,29.77
2022-12-04T16:06:06.974Z,31.25
2022-12-04T16:08:37.573Z,31.40
2022-12-04T16:11:22.724Z,30.02
2022-12-04T16:14:01.757Z,27.67
2022-12-04T16:16:29.461Z,29.60
2022-12-04T16:18:57.108Z,33.90
2022-12-04T16:21:30.390Z,30.23
2022-12-04T16:24:02.425Z,31.00
2022-12-04T16:26:29.813Z,30.33
2022-12-04T16:28:57.297Z,37.00
2022-12-04T16:31:25.485Z,38.42
2022-12-04T16:33:53.040Z,37.45
2022-12-04T16:36:20.272Z,34.90
2022-12-04T16:38:47.508Z,34.92
2022-12-04T16:41:17.262Z,42.72
2022-12-04T16:43:45.082Z,43.10
2022-12-04T16:46:15.051Z,40.25
2022-12-04T16:48:43.172Z,42.13
2022-12-04T16:51:21.511Z,31.08
2022-12-04T16:53:50.240Z,36.85
2022-12-04T16:56:18.149Z,37.47
2022-12-04T16:58:45.447Z,35.15
2022-12-04T17:01:23.336Z,32.85
2022-12-04T17:03:51.101Z,29.40
2022-12-04T17:06:18.726Z,30.65
2022-12-04T17:08:46.180Z,33.30
2022-12-04T17:11:15.232Z,27.33
2022-12-04T17:13:42.759Z,28.88
2022-12-04T17:16:14.063Z,31.38
2022-12-04T17:18:43.123Z,30.63
2022-12-04T17:21:11.967Z,35.75
2022-12-04T17:23:40.194Z,39.03
2022-12-04T17:26:10.143Z,30.35
2022-12-04T17:28:37.872Z,31.20
2022-12-04T17:31:12.647Z,40.85
2022-12-04T17:33:39.961Z,31.45
2022-12-04T17:36:17.833Z,35.90
2022-12-04T17:38:45.181Z,32.40
2022-12-04T17:41:14.084Z,32.58
2022-12-04T17:43:42.713Z,31.50
2022-12-04T17:46:20.397Z,37.53
2022-12-04T17:48:48.597Z,33.13
2022-12-04T17:51:23.657Z,37.55
2022-12-04T17:53:51.645Z,31.60
2022-12-04T17:56:21.692Z,37.63
2022-12-04T17:58:49.660Z,33.88
2022-12-04T18:01:20.090Z,33.50
2022-12-04T18:03:58.815Z,30.10
2022-12-04T18:06:28.889Z,34.58
2022-12-04T18:08:56.646Z,24.45
2022-12-04T18:11:26.104Z,39.08
2022-12-04T18:13:59.512Z,30.35
2022-12-04T18:16:28.694Z,37.05
2022-12-04T18:18:57.194Z,34.55
2022-12-04T18:21:24.967Z,31.25
2022-12-04T18:23:52.654Z,38.55
2022-12-04T18:26:22.305Z,33.85
2022-12-04T18:28:49.878Z,39.85
2022-12-04T18:31:19.011Z,35.42
2022-12-04T18:33:46.725Z,36.38
2022-12-04T18:36:20.061Z,39.38
2022-12-04T18:38:52.360Z,34.83
2022-12-04T18:41:19.657Z,36.28
2022-12-04T18:43:46.897Z,35.45
2022-12-04T18:46:16.060Z,39.25
2022-12-04T18:48:44.675Z,35.85
2022-12-04T18:51:23.139Z,39.33
2022-12-04T18:53:51.923Z,35.60
2022-12-04T18:56:19.602Z,40.80
2022-12-04T18:58:47.156Z,40.40
2022-12-04T19:01:21.079Z,36.95
2022-12-04T19:03:48.620Z,37.50
2022-12-04T19:06:15.886Z,36.58
2022-12-04T19:08:43.729Z,34.17
2022-12-04T19:11:13.821Z,37.65
2022-12-04T19:13:41.906Z,37.63
2022-12-04T19:16:14.814Z,42.13
2022-12-04T19:18:45.048Z,46.80
2022-12-04T19:21:16.088Z,51.33
2022-12-04T19:23:48.571Z,43.13
2022-12-04T19:26:15.801Z,39.13
2022-12-04T19:28:43.055Z,32.08
2022-12-04T19:31:18.835Z,34.35
2022-12-04T19:33:46.426Z,42.72
2022-12-04T19:36:14.693Z,41.00
2022-12-04T19:38:42.656Z,35.88
2022-12-04T19:41:12.986Z,35.65
2022-12-04T19:43:44.863Z,40.35
2022-12-04T19:46:14.222Z,33.58
2022-12-04T19:48:41.879Z,42.33
2022-12-04T19:51:12.103Z,34.08
2022-12-04T19:53:41.297Z,34.47
2022-12-04T19:56:12.449Z,32.28
2022-12-04T19:58:40.016Z,32.97
2022-12-04T20:01:10.185Z,26.52
2022-12-04T20:03:37.444Z,34.25
2022-12-04T20:06:10.445Z,32.25
2022-12-04T20:08:38.502Z,29.80
2022-12-04T20:11:08.042Z,30.65
2022-12-04T20:13:36.236Z,33.88
2022-12-04T20:16:09.285Z,30.55
2022-12-04T20:18:38.412Z,28.58
2022-12-04T20:21:10.950Z,32.92
2022-12-04T20:23:38.794Z,27.65
2022-12-04T20:26:08.856Z,33.30
2022-12-04T20:28:36.545Z,32.20
2022-12-04T20:31:22.633Z,41.75
2022-12-04T20:33:52.555Z,38.40
2022-12-04T20:36:21.921Z,33.13
2022-12-04T20:38:51.176Z,33.30
2022-12-04T20:41:18.991Z,30.88
2022-12-04T20:43:47.576Z,38.42
2022-12-04T20:46:23.823Z,33.78
2022-12-04T20:48:53.424Z,30.70
2022-12-04T20:51:24.092Z,30.70
2022-12-04T20:53:52.620Z,34.25
2022-12-04T20:56:21.811Z,39.33
2022-12-04T20:58:49.136Z,39.30
2022-12-04T21:01:18.551Z,30.00
2022-12-04T21:03:46.871Z,33.22
2022-12-04T21:06:31.034Z,35.40
2022-12-04T21:09:05.803Z,38.13
2022-12-04T21:11:36.328Z,35.58
2022-12-04T21:14:30.317Z,39.90
2022-12-04T21:16:58.169Z,46.58
2022-12-04T21:19:26.034Z,43.35
2022-12-04T21:21:54.036Z,41.25
2022-12-04T21:24:23.336Z,40.63
2022-12-04T21:26:50.809Z,53.22
2022-12-04T21:29:18.054Z,41.50
2022-12-04T21:31:45.477Z,44.75
2022-12-04T21:34:14.933Z,47.92
2022-12-04T21:36:42.283Z,43.75
2022-12-04T21:39:10.646Z,44.40
2022-12-04T21:41:56.581Z,41.35
2022-12-04T21:44:23.825Z,44.20
2022-12-04T21:46:51.194Z,45.13
2022-12-04T21:49:19.580Z,46.30
2022-12-04T21:52:02.567Z,41.95
2022-12-04T21:54:30.083Z,47.50
2022-12-04T21:56:57.910Z,41.03
2022-12-04T21:59:26.043Z,45.25
2022-12-04T22:01:54.203Z,48.35
2022-12-04T22:04:22.008Z,54.60
2022-12-04T22:06:49.739Z,49.38
2022-12-04T22:09:17.337Z,44.95
2022-12-04T22:11:44.735Z,53.88
2022-12-04T22:14:12.739Z,43.47
2022-12-04T22:16:42.632Z,43.35
2022-12-04T22:19:12.295Z,46.28
2022-12-04T22:21:40.056Z,45.13
2022-12-04T22:24:07.954Z,40.28
2022-12-04T22:26:35.142Z,45.13
2022-12-04T22:29:11.261Z,42.35
2022-12-04T22:31:50.299Z,49.22
2022-12-04T22:34:17.571Z,45.75
2022-12-04T22:36:44.770Z,48.35
2022-12-04T22:39:12.089Z,47.72
2022-12-04T22:41:39.855Z,50.47
2022-12-04T22:44:07.072Z,52.78
2022-12-04T22:46:34.533Z,45.63
2022-12-04T22:49:01.750Z,48.88
2022-12-04T22:51:29.027Z,58.15
2022-12-04T22:53:58.080Z,54.45
2022-12-04T22:56:30.539Z,48.00
2022-12-04T22:58:59.272Z,55.10
2022-12-04T23:01:29.354Z,48.15
2022-12-04T23:03:57.126Z,47.95
2022-12-04T23:06:26.413Z,47.67
2022-12-04T23:08:58.816Z,61.28
2022-12-04T23:11:27.013Z,57.67
2022-12-04T23:14:00.181Z,51.33
2022-12-04T23:16:31.308Z,58.75
2022-12-04T23:18:58.727Z,57.72
2022-12-04T23:21:27.721Z,64.93
2022-12-04T23:23:56.001Z,57.58
2022-12-04T23:26:26.236Z,62.35
2022-12-04T23:28:54.993Z,53.58
2022-12-04T23:31:23.046Z,53.88
2022-12-04T23:33:50.585Z,65.03
2022-12-04T23:36:17.795Z,54.00
2022-12-04T23:38:45.369Z,55.50
2022-12-04T23:41:15.991Z,57.88
2022-12-04T23:43:44.137Z,50.53
2022-12-04T23:46:12.936Z,54.63
2022-12-04T23:48:41.642Z,55.28
2022-12-04T23:51:10.105Z,58.83
2022-12-04T23:53:37.647Z,53.45
2022-12-04T23:56:08.294Z,52.97
2022-12-04T23:58:36.742Z,52.65
